Time;durP1;ratioP1;P1;durP2;ratioP2;P2;SDS_P1;SDS_P2;PMS_P1;PMS_P2;Temp;Humidity;BMP_temperature;BMP_pressure;BME280_temperature;BME280_humidity;BME280_pressure;Samples;Min_cycle;Max_cycle;Signal;HPM_P1;HPM_P2
2024/04/12 00:02:14;;;;;;;11.82;6.20;;;;;;;;;;10925071;26;20016;-75
2024/04/12 00:07:22;;;;;;;11.80;5.95;;;;;;;;;;10947048;26;20458;-74
2024/04/12 00:12:27;;;;;;;11.25;6.07;;;;;;;;;;10949730;26;20081;-75
2024/04/12 00:17:34;;;;;;;11.90;5.95;;;;;;;;;;10946021;26;20384;-76
2024/04/12 00:22:43;;;;;;;12.30;6.63;;;;;;;;;;10945404;26;20655;-74
2024/04/12 00:27:47;;;;;;;12.65;6.10;;;;;;;;;;10943796;27;20117;-76
2024/04/12 00:32:57;;;;;;;16.65;6.72;;;;;;;;;;10940713;27;20009;-76
2024/04/12 00:38:09;;;;;;;14.85;7.20;;;;;;;;;;10951380;26;20009;-76
2024/04/12 00:43:18;;;;;;;12.65;6.45;;;;;;;;;;10942964;27;20016;-77
2024/04/12 00:48:26;;;;;;;14.45;7.55;;;;;;;;;;10945607;27;20006;-77
2024/04/12 00:53:34;;;;;;;17.45;7.55;;;;;;;;;;10951103;26;20006;-77
2024/04/12 00:58:41;;;;;;;17.92;8.00;;;;;;;;;;10915327;26;20010;-75
2024/04/12 01:03:53;;;;;;;14.68;7.55;;;;;;;;;;10946666;27;20545;-76
2024/04/12 01:09:10;;;;;;;13.32;6.55;;;;;;;;;;10945692;26;20003;-76
2024/04/12 01:14:16;;;;;;;13.10;6.13;;;;;;;;;;10947234;26;20486;-75
2024/04/12 01:19:21;;;;;;;12.40;5.88;;;;;;;;;;10947023;27;20121;-75
2024/04/12 01:24:29;;;;;;;15.43;6.78;;;;;;;;;;10940985;27;20018;-74
2024/04/12 01:29:36;;;;;;;14.25;5.68;;;;;;;;;;10943251;27;20010;-76
2024/04/12 01:34:50;;;;;;;13.27;6.32;;;;;;;;;;10944149;27;20092;-74
2024/04/12 01:40:01;;;;;;;9.82;5.68;;;;;;;;;;10915568;27;20020;-74
2024/04/12 01:45:18;;;;;;;12.27;5.72;;;;;;;;;;10945708;27;20020;-75
2024/04/12 01:50:24;;;;;;;10.95;5.78;;;;;;;;;;10916636;27;20100;-76
2024/04/12 01:55:32;;;;;;;11.30;5.57;;;;;;;;;;10919829;26;20034;-74
2024/04/12 02:00:40;;;;;;;9.43;4.85;;;;;;;;;;10942183;26;20013;-75
2024/04/12 02:05:44;;;;;;;8.98;5.43;;;;;;;;;;10940230;27;20006;-75
2024/04/12 02:10:49;;;;;;;14.00;5.80;;;;;;;;;;10914750;26;20021;-75
2024/04/12 02:15:57;;;;;;;11.90;6.57;;;;;;;;;;10946929;26;20084;-75
2024/04/12 02:21:05;;;;;;;6.50;3.83;;;;;;;;;;10952753;26;20002;-77
2024/04/12 02:26:09;;;;;;;7.85;4.25;;;;;;;;;;10948966;26;20304;-76
2024/04/12 02:31:17;;;;;;;12.25;5.30;;;;;;;;;;10944441;26;20020;-76
2024/04/12 02:36:21;;;;;;;11.55;5.45;;;;;;;;;;10951142;26;20017;-76
2024/04/12 02:41:37;;;;;;;12.57;6.28;;;;;;;;;;10932287;26;20009;-76
2024/04/12 02:46:44;;;;;;;14.93;5.05;;;;;;;;;;10943013;26;20036;-75
2024/04/12 02:51:51;;;;;;;15.18;6.72;;;;;;;;;;10947604;26;20081;-76
2024/04/12 02:56:56;;;;;;;10.82;5.95;;;;;;;;;;10930287;26;20424;-75
2024/04/12 03:02:04;;;;;;;12.07;5.88;;;;;;;;;;10944419;27;20010;-75
2024/04/12 03:07:12;;;;;;;12.40;6.32;;;;;;;;;;10946137;26;20018;-75
2024/04/12 03:12:16;;;;;;;11.90;6.28;;;;;;;;;;10947566;26;20002;-76
2024/04/12 03:17:23;;;;;;;13.30;6.57;;;;;;;;;;10948226;27;20119;-76
2024/04/12 03:22:28;;;;;;;12.60;6.50;;;;;;;;;;10949756;27;20002;-76
2024/04/12 03:27:33;;;;;;;11.50;5.90;;;;;;;;;;10950850;26;22875;-75
2024/04/12 03:32:44;;;;;;;11.02;6.13;;;;;;;;;;10945409;26;20497;-76
2024/04/12 03:38:24;;;;;;;13.88;6.35;;;;;;;;;;10951809;26;20017;-75
2024/04/12 03:43:14;;;;;;;12.25;6.63;;;;;;;;;;10941329;26;20006;-74
2024/04/12 03:48:24;;;;;;;14.10;6.72;;;;;;;;;;10943769;26;20451;-75
2024/04/12 03:53:30;;;;;;;12.65;5.70;;;;;;;;;;10945938;27;20183;-77
2024/04/12 03:58:35;;;;;;;12.73;5.43;;;;;;;;;;10917733;27;20017;-74
2024/04/12 04:03:49;;;;;;;11.77;6.10;;;;;;;;;;10941306;26;20001;-76
2024/04/12 04:08:53;;;;;;;;;;;;;;;;;;10944244;26;20156;-76
2024/04/12 04:13:58;;;;;;;13.07;5.55;;;;;;;;;;10949379;27;19938;-77
2024/04/12 04:19:05;;;;;;;10.77;5.10;;;;;;;;;;10943463;27;20002;-76
2024/04/12 04:24:11;;;;;;;8.93;5.05;;;;;;;;;;10941145;26;20502;-77
2024/04/12 04:29:16;;;;;;;11.32;5.25;;;;;;;;;;10954649;26;20467;-74
2024/04/12 04:34:25;;;;;;;10.98;5.55;;;;;;;;;;10947086;26;20013;-74
2024/04/12 04:39:29;;;;;;;10.00;5.38;;;;;;;;;;10952734;26;20429;-73
2024/04/12 04:44:36;;;;;;;9.57;5.32;;;;;;;;;;10947913;26;20146;-74
2024/04/12 04:49:43;;;;;;;9.02;4.53;;;;;;;;;;10950975;27;20195;-74
2024/04/12 04:54:47;;;;;;;9.95;4.30;;;;;;;;;;10957432;27;20017;-74
2024/04/12 05:00:05;;;;;;;9.82;5.07;;;;;;;;;;10949051;27;20005;-74
2024/04/12 05:05:13;;;;;;;11.88;5.57;;;;;;;;;;10950943;27;20045;-75
2024/04/12 05:10:20;;;;;;;12.77;5.35;;;;;;;;;;10950843;26;20033;-76
2024/04/12 05:15:49;;;;;;;8.77;4.68;;;;;;;;;;10944063;27;19998;-75
2024/04/12 05:20:57;;;;;;;8.40;4.53;;;;;;;;;;10943998;27;20010;-75
2024/04/12 05:26:03;;;;;;;9.60;4.80;;;;;;;;;;10915036;26;20009;-75
2024/04/12 05:31:12;;;;;;;5.40;2.80;;;;;;;;;;10946621;27;20056;-75
2024/04/12 05:36:20;;;;;;;7.32;3.53;;;;;;;;;;10945915;26;20475;-75
2024/04/12 05:41:32;;;;;;;8.38;3.40;;;;;;;;;;10941192;27;20045;-76
2024/04/12 05:46:39;;;;;;;8.50;4.45;;;;;;;;;;10939448;26;20016;-75
2024/04/12 05:51:49;;;;;;;7.65;3.88;;;;;;;;;;10954404;26;20013;-76
2024/04/12 05:56:54;;;;;;;8.20;3.78;;;;;;;;;;10948976;26;20010;-75
2024/04/12 06:02:05;;;;;;;14.80;5.00;;;;;;;;;;10949886;26;20456;-76
2024/04/12 06:07:14;;;;;;;10.85;5.00;;;;;;;;;;10921983;26;20071;-74
2024/04/12 06:12:18;;;;;;;7.80;4.20;;;;;;;;;;10947282;26;20021;-74
2024/04/12 06:17:23;;;;;;;7.60;3.55;;;;;;;;;;10946094;26;20461;-75
2024/04/12 06:22:31;;;;;;;6.80;4.20;;;;;;;;;;10955000;26;20021;-76
2024/04/12 06:27:36;;;;;;;6.00;3.17;;;;;;;;;;10946672;26;20008;-73
2024/04/12 06:32:40;;;;;;;11.25;4.90;;;;;;;;;;10943056;26;20465;-73
2024/04/12 06:37:47;;;;;;;8.75;4.55;;;;;;;;;;10946925;26;20005;-74
2024/04/12 06:43:05;;;;;;;7.63;4.10;;;;;;;;;;10945318;26;20487;-75
2024/04/12 06:48:16;;;;;;;13.75;5.55;;;;;;;;;;10951931;26;20006;-74
2024/04/12 06:53:24;;;;;;;7.63;4.53;;;;;;;;;;10947235;26;20089;-74
2024/04/12 06:58:32;;;;;;;8.13;3.90;;;;;;;;;;10943999;26;20054;-74
2024/04/12 07:03:37;;;;;;;6.82;4.32;;;;;;;;;;10952533;26;20002;-75
2024/04/12 07:08:49;;;;;;;7.10;4.15;;;;;;;;;;10957209;26;20001;-74
2024/04/12 07:13:55;;;;;;;9.27;5.72;;;;;;;;;;10949835;26;20079;-74
2024/04/12 07:19:00;;;;;;;9.70;4.65;;;;;;;;;;10949986;26;20202;-74
2024/04/12 07:24:08;;;;;;;11.05;5.50;;;;;;;;;;10948621;26;20514;-76
2024/04/12 07:29:13;;;;;;;9.15;5.13;;;;;;;;;;10943329;26;20112;-76
2024/04/12 07:34:18;;;;;;;8.45;5.25;;;;;;;;;;10946793;26;20005;-75
2024/04/12 07:39:31;;;;;;;10.65;5.60;;;;;;;;;;10948958;26;20006;-75
2024/04/12 07:44:35;;;;;;;9.77;5.32;;;;;;;;;;10955956;26;20024;-74
2024/04/12 07:49:48;;;;;;;10.07;5.40;;;;;;;;;;10957982;26;20002;-74
2024/04/12 07:55:01;;;;;;;9.65;4.65;;;;;;;;;;10968904;26;19998;-75
2024/04/12 08:00:09;;;;;;;8.68;4.95;;;;;;;;;;10965479;26;20411;-75
2024/04/12 08:05:16;;;;;;;8.27;5.38;;;;;;;;;;10944408;26;20096;-76
2024/04/12 08:10:29;;;;;;;9.57;5.22;;;;;;;;;;10944073;26;20588;-75
2024/04/12 08:15:40;;;;;;;9.25;5.38;;;;;;;;;;10943276;26;20006;-75
2024/04/12 08:20:46;;;;;;;8.47;5.00;;;;;;;;;;10945036;26;20490;-75
2024/04/12 08:25:58;;;;;;;5.72;2.60;;;;;;;;;;10941910;26;20037;-76
2024/04/12 08:31:05;;;;;;;7.60;5.30;;;;;;;;;;10943871;26;20557;-76
2024/04/12 08:36:14;;;;;;;6.28;4.78;;;;;;;;;;10942060;26;20006;-75
2024/04/12 08:41:21;;;;;;;9.43;5.07;;;;;;;;;;10938097;26;20013;-76
2024/04/12 08:46:28;;;;;;;8.50;4.90;;;;;;;;;;10942600;26;20556;-75
2024/04/12 08:51:34;;;;;;;9.35;4.82;;;;;;;;;;10939186;26;20010;-74
2024/04/12 08:56:45;;;;;;;6.72;4.93;;;;;;;;;;10940193;26;20024;-76
2024/04/12 09:01:51;;;;;;;8.38;5.70;;;;;;;;;;10934713;26;20021;-76
2024/04/12 09:06:58;;;;;;;8.43;5.85;;;;;;;;;;10937776;26;20029;-74
2024/04/12 09:12:12;;;;;;;6.47;5.38;;;;;;;;;;10936467;26;20002;-76
2024/04/12 09:17:24;;;;;;;8.18;6.30;;;;;;;;;;10939789;26;20005;-77
2024/04/12 09:22:29;;;;;;;7.60;5.45;;;;;;;;;;10944070;26;20430;-76
2024/04/12 09:27:43;;;;;;;7.35;5.78;;;;;;;;;;10949064;26;20013;-77
2024/04/12 09:33:00;;;;;;;6.93;5.90;;;;;;;;;;10951805;26;20061;-77
2024/04/12 09:38:16;;;;;;;7.65;6.20;;;;;;;;;;10941735;26;20491;-76
2024/04/12 09:43:29;;;;;;;7.22;5.15;;;;;;;;;;10939819;26;20042;-75
2024/04/12 10:37:36;;;;;;;7.82;6.30;;;;;;;;;;10938435;26;22632;-76
2024/04/12 10:42:45;;;;;;;12.27;6.70;;;;;;;;;;10941748;26;20010;-76
2024/04/12 10:47:54;;;;;;;8.13;5.50;;;;;;;;;;10942724;26;20002;-76
2024/04/12 10:53:06;;;;;;;7.22;5.00;;;;;;;;;;10940136;26;20370;-77
2024/04/12 10:58:14;;;;;;;7.25;5.78;;;;;;;;;;10958457;26;20434;-77
2024/04/12 11:03:24;;;;;;;8.45;6.13;;;;;;;;;;10933762;27;20018;-77
2024/04/12 11:08:31;;;;;;;8.23;5.55;;;;;;;;;;10938555;26;20568;-76
2024/04/12 11:13:45;;;;;;;8.57;6.28;;;;;;;;;;10947649;26;20109;-76
2024/04/12 11:35:05;;;;;;;9.88;6.28;;;;;;;;;;10942926;27;20038;-75
2024/04/12 11:40:16;;;;;;;6.82;5.30;;;;;;;;;;10947561;27;20017;-76
2024/04/12 11:45:25;;;;;;;7.72;6.20;;;;;;;;;;10915329;27;20017;-77
2024/04/12 11:50:35;;;;;;;8.45;5.50;;;;;;;;;;10949275;27;20005;-77
2024/04/12 11:55:41;;;;;;;9.07;5.63;;;;;;;;;;10941366;27;20032;-77
2024/04/12 12:00:48;;;;;;;8.88;6.03;;;;;;;;;;10946348;26;20057;-76
2024/04/12 12:06:06;;;;;;;8.45;6.38;;;;;;;;;;10940693;26;20006;-77
2024/04/12 12:11:12;;;;;;;7.97;5.15;;;;;;;;;;10941442;27;20024;-78
2024/04/12 12:16:18;;;;;;;9.50;5.75;;;;;;;;;;10939258;27;20001;-77
2024/04/12 12:21:28;;;;;;;7.32;5.10;;;;;;;;;;10933113;27;20014;-76
2024/04/12 12:26:34;;;;;;;8.73;5.72;;;;;;;;;;10941079;26;19999;-77
2024/04/12 12:31:39;;;;;;;9.07;6.32;;;;;;;;;;10942038;27;20037;-78
2024/04/12 12:36:50;;;;;;;9.10;6.25;;;;;;;;;;10939316;27;20005;-78
2024/04/12 12:41:55;;;;;;;;;;;;;;;;;;10939870;26;20394;-77
2024/04/12 12:47:02;;;;;;;9.35;5.43;;;;;;;;;;10941355;27;19946;-77
2024/04/12 12:52:12;;;;;;;7.97;5.75;;;;;;;;;;10939644;26;20291;-77
2024/04/12 12:57:25;;;;;;;13.38;6.45;;;;;;;;;;10912104;26;20009;-77
2024/04/12 13:02:32;;;;;;;10.98;6.32;;;;;;;;;;10942935;26;20057;-77
2024/04/12 13:07:40;;;;;;;9.85;6.38;;;;;;;;;;10943703;26;20060;-77
2024/04/12 13:12:50;;;;;;;8.32;5.53;;;;;;;;;;10943582;26;20121;-79
2024/04/12 13:17:56;;;;;;;11.80;6.57;;;;;;;;;;10940532;26;20474;-76
2024/04/12 13:23:05;;;;;;;10.48;7.80;;;;;;;;;;10913203;26;20010;-77
2024/04/12 13:28:13;;;;;;;12.82;8.95;;;;;;;;;;10914354;26;20018;-76
2024/04/12 13:33:25;;;;;;;10.23;6.93;;;;;;;;;;10946640;26;20474;-77
2024/04/12 13:38:33;;;;;;;10.85;7.22;;;;;;;;;;10936296;26;20689;-78
2024/04/12 13:43:39;;;;;;;10.98;7.07;;;;;;;;;;10944429;26;20021;-76
2024/04/12 13:54:08;;;;;;;12.63;7.20;;;;;;;;;;10948554;26;20021;-75
2024/04/12 13:59:13;;;;;;;10.15;6.13;;;;;;;;;;10942751;26;20021;-77
2024/04/12 14:04:26;;;;;;;11.60;6.63;;;;;;;;;;10952232;26;20591;-77
2024/04/12 14:09:34;;;;;;;9.93;5.85;;;;;;;;;;10958519;26;20009;-78
2024/04/12 14:14:40;;;;;;;11.68;7.38;;;;;;;;;;10944985;26;19999;-77
2024/04/12 14:19:46;;;;;;;8.07;5.80;;;;;;;;;;10945255;26;20060;-78
2024/04/12 14:25:08;;;;;;;9.25;5.93;;;;;;;;;;10951476;26;20008;-76
2024/04/12 14:30:15;;;;;;;12.48;6.00;;;;;;;;;;10949689;27;20017;-78
2024/04/12 14:35:22;;;;;;;10.55;6.53;;;;;;;;;;10949092;27;20074;-76
2024/04/12 14:40:34;;;;;;;11.30;6.40;;;;;;;;;;10951451;27;20017;-77
2024/04/12 14:45:40;;;;;;;13.00;5.50;;;;;;;;;;10927397;27;20115;-76
2024/04/12 14:50:49;;;;;;;14.90;5.80;;;;;;;;;;10948846;27;20132;-76
2024/04/12 14:56:00;;;;;;;17.88;6.13;;;;;;;;;;10930216;27;20112;-76
2024/04/12 15:01:04;;;;;;;13.27;7.40;;;;;;;;;;10953088;27;20091;-75
2024/04/12 15:49:29;;;;;;;10.57;5.80;;;;;;;;;;10947103;26;20467;-76
2024/04/12 15:54:35;;;;;;;11.40;7.05;;;;;;;;;;10948063;26;20006;-75
2024/04/12 16:10:49;;;;;;;12.15;5.70;;;;;;;;;;10949524;26;20146;-75
2024/04/12 16:15:54;;;;;;;9.00;5.68;;;;;;;;;;10949635;27;20086;-77
2024/04/12 16:21:02;;;;;;;9.80;5.95;;;;;;;;;;10947275;26;20017;-76
2024/04/12 16:26:07;;;;;;;9.65;5.72;;;;;;;;;;10923824;27;20362;-75
2024/04/12 16:31:12;;;;;;;11.38;6.10;;;;;;;;;;10933822;26;20041;-75
2024/04/12 16:36:19;;;;;;;11.05;5.97;;;;;;;;;;10942455;26;20013;-74
2024/04/12 16:41:24;;;;;;;12.65;6.47;;;;;;;;;;10952076;27;20038;-75
2024/04/12 16:46:29;;;;;;;9.00;6.10;;;;;;;;;;10942738;26;20017;-75
2024/04/12 16:51:37;;;;;;;11.80;6.10;;;;;;;;;;10948754;26;20505;-77
2024/04/12 16:56:44;;;;;;;10.63;5.90;;;;;;;;;;10953024;26;20028;-75
2024/04/12 17:01:51;;;;;;;10.52;6.20;;;;;;;;;;10952307;26;20338;-74
2024/04/12 17:06:59;;;;;;;15.23;7.25;;;;;;;;;;10950004;26;20006;-76
2024/04/12 17:12:04;;;;;;;12.32;6.60;;;;;;;;;;10951848;26;20029;-73
2024/04/12 17:17:10;;;;;;;13.70;7.80;;;;;;;;;;10944684;26;20006;-75
2024/04/12 17:22:17;;;;;;;12.48;6.68;;;;;;;;;;10943916;26;20355;-77
2024/04/12 17:27:22;;;;;;;11.60;6.68;;;;;;;;;;10947277;27;19998;-76
2024/04/12 17:32:34;;;;;;;14.48;6.70;;;;;;;;;;10941942;27;20539;-76
2024/04/12 17:37:42;;;;;;;16.83;7.32;;;;;;;;;;10952961;26;20021;-75
2024/04/12 17:42:48;;;;;;;16.00;7.20;;;;;;;;;;10950768;26;20014;-75
2024/04/12 17:47:54;;;;;;;13.38;7.07;;;;;;;;;;10957547;26;20001;-76
2024/04/12 17:53:04;;;;;;;14.40;7.22;;;;;;;;;;10963509;26;20009;-74
2024/04/12 17:58:10;;;;;;;12.05;7.00;;;;;;;;;;10955941;26;20016;-76
2024/04/12 18:03:16;;;;;;;13.45;7.05;;;;;;;;;;10954344;26;20143;-75
2024/04/12 18:08:24;;;;;;;15.98;7.72;;;;;;;;;;10957949;26;20014;-75
2024/04/12 18:13:29;;;;;;;15.95;6.90;;;;;;;;;;10942841;26;20010;-75
2024/04/12 18:18:34;;;;;;;20.10;7.47;;;;;;;;;;10950201;26;20481;-77
2024/04/12 18:23:43;;;;;;;16.73;8.02;;;;;;;;;;10935508;26;20889;-78
2024/04/12 18:28:52;;;;;;;16.67;9.13;;;;;;;;;;10951254;26;20006;-75
2024/04/12 18:33:57;;;;;;;17.00;8.00;;;;;;;;;;10958354;26;20013;-75
2024/04/12 18:49:46;;;;;;;15.60;7.72;;;;;;;;;;10946613;26;20085;-76
2024/04/12 18:54:53;;;;;;;15.98;7.00;;;;;;;;;;10949663;26;20355;-77
2024/04/12 18:59:58;;;;;;;15.65;7.72;;;;;;;;;;10948285;26;20021;-76
2024/04/12 19:05:03;;;;;;;17.48;7.10;;;;;;;;;;10949156;27;20097;-77
2024/04/12 19:10:13;;;;;;;19.95;7.82;;;;;;;;;;10958948;26;20215;-77
2024/04/12 19:15:24;;;;;;;21.23;8.40;;;;;;;;;;10950358;26;20025;-78
2024/04/12 19:20:30;;;;;;;18.13;7.30;;;;;;;;;;10932567;26;20273;-76
2024/04/12 19:25:41;;;;;;;18.25;7.88;;;;;;;;;;10948917;26;20002;-78
2024/04/12 19:30:51;;;;;;;19.25;9.00;;;;;;;;;;10922155;26;20295;-77
2024/04/12 19:35:58;;;;;;;17.58;8.23;;;;;;;;;;10949769;26;20010;-77
2024/04/12 19:41:06;;;;;;;20.20;8.45;;;;;;;;;;10948668;26;20104;-77
2024/04/12 19:46:18;;;;;;;17.38;8.50;;;;;;;;;;10948051;26;20013;-79
2024/04/12 19:51:23;;;;;;;19.30;7.88;;;;;;;;;;10954892;27;20009;-78
2024/04/12 19:56:42;;;;;;;17.00;7.97;;;;;;;;;;10944795;26;20006;-79
2024/04/12 20:01:51;;;;;;;19.77;10.40;;;;;;;;;;10948446;26;20001;-78
2024/04/12 20:06:56;;;;;;;21.83;9.52;;;;;;;;;;10955117;26;20375;-78
2024/04/12 20:12:01;;;;;;;19.77;9.40;;;;;;;;;;10952985;26;20009;-77
2024/04/12 20:17:09;;;;;;;23.35;11.52;;;;;;;;;;10949630;26;20378;-78
2024/04/12 20:22:14;;;;;;;20.15;9.40;;;;;;;;;;10950152;26;20013;-76
2024/04/12 20:27:22;;;;;;;20.50;10.38;;;;;;;;;;10918293;26;20005;-77
2024/04/12 20:32:37;;;;;;;32.75;13.00;;;;;;;;;;10950948;26;20000;-74
2024/04/12 20:37:43;;;;;;;21.20;10.48;;;;;;;;;;10918508;26;20013;-76
2024/04/12 20:42:48;;;;;;;30.27;13.65;;;;;;;;;;10949675;26;20006;-77
2024/04/12 20:47:57;;;;;;;23.70;11.63;;;;;;;;;;10948880;26;20624;-76
2024/04/12 20:53:04;;;;;;;27.73;13.23;;;;;;;;;;10947371;26;20020;-77
2024/04/12 20:58:20;;;;;;;22.92;9.02;;;;;;;;;;10954283;26;20033;-76
2024/04/12 21:03:31;;;;;;;21.10;10.60;;;;;;;;;;10947518;26;20036;-75
2024/04/12 21:08:36;;;;;;;22.48;9.63;;;;;;;;;;10918539;26;20020;-78
2024/04/12 21:13:41;;;;;;;23.10;9.63;;;;;;;;;;10942017;26;20005;-77
2024/04/12 21:18:52;;;;;;;20.80;9.57;;;;;;;;;;10947915;26;20129;-77
2024/04/12 21:23:57;;;;;;;19.58;8.15;;;;;;;;;;10918441;26;20024;-77
2024/04/12 21:29:03;;;;;;;24.45;11.55;;;;;;;;;;10948512;26;20551;-78
2024/04/12 21:34:13;;;;;;;21.33;9.77;;;;;;;;;;10944105;26;20206;-78
2024/04/12 21:39:22;;;;;;;17.20;9.07;;;;;;;;;;10950095;26;20354;-77
2024/04/12 21:44:32;;;;;;;16.15;7.82;;;;;;;;;;10943200;26;20092;-77
2024/04/12 21:49:44;;;;;;;20.45;8.43;;;;;;;;;;10958675;26;20014;-77
2024/04/12 21:54:50;;;;;;;8.73;4.70;;;;;;;;;;10955263;26;20018;-77
2024/04/12 22:00:04;;;;;;;14.88;7.25;;;;;;;;;;10959486;26;20669;-76
2024/04/12 22:05:12;;;;;;;12.05;5.18;;;;;;;;;;10958986;26;20009;-78
2024/04/12 22:10:17;;;;;;;16.00;6.68;;;;;;;;;;10960670;26;20020;-78
2024/04/12 22:15:23;;;;;;;17.23;8.63;;;;;;;;;;10908476;26;20013;-76
2024/04/12 22:20:30;;;;;;;14.70;6.88;;;;;;;;;;10953335;26;20006;-76
2024/04/12 22:25:38;;;;;;;12.30;6.32;;;;;;;;;;10957463;26;22545;-76
2024/04/12 22:30:43;;;;;;;18.83;7.15;;;;;;;;;;10932556;27;20928;-75
2024/04/12 22:35:50;;;;;;;11.30;5.07;;;;;;;;;;10933677;26;20465;-75
2024/04/12 22:40:55;;;;;;;15.65;7.13;;;;;;;;;;10966425;26;20033;-75
2024/04/12 22:46:07;;;;;;;12.40;5.72;;;;;;;;;;10968874;27;20006;-76
2024/04/12 22:51:22;;;;;;;14.63;6.80;;;;;;;;;;10968786;26;20005;-76
2024/04/12 22:56:27;;;;;;;19.55;7.40;;;;;;;;;;10967452;27;20512;-76
2024/04/12 23:01:32;;;;;;;12.93;6.50;;;;;;;;;;10956878;27;20139;-77
2024/04/12 23:06:40;;;;;;;13.23;6.57;;;;;;;;;;10945285;26;20001;-76
2024/04/12 23:11:45;;;;;;;16.52;7.40;;;;;;;;;;10949607;26;20013;-76
2024/04/12 23:16:50;;;;;;;11.55;6.32;;;;;;;;;;10949280;27;19998;-75
2024/04/12 23:21:58;;;;;;;12.70;6.63;;;;;;;;;;10943485;26;20050;-75
2024/04/12 23:27:06;;;;;;;14.70;6.95;;;;;;;;;;10953538;26;20037;-75
2024/04/12 23:32:14;;;;;;;20.75;7.50;;;;;;;;;;10945635;27;20050;-75
2024/04/12 23:37:22;;;;;;;11.30;6.70;;;;;;;;;;10946565;26;20006;-75
2024/04/12 23:42:26;;;;;;;12.00;6.47;;;;;;;;;;10942857;26;20010;-75
2024/04/12 23:47:31;;;;;;;13.93;6.65;;;;;;;;;;10949145;27;20582;-76
2024/04/12 23:52:39;;;;;;;14.68;6.95;;;;;;;;;;10955289;27;20538;-76
2024/04/12 23:57:48;;;;;;;9.68;5.47;;;;;;;;;;10949049;27;20009;-75
